sensor_id;sensor_type;location;lat;lon;timestamp;P1;durP1;ratioP1;P2;durP2;ratioP2
78877;SDS011;68257;43.514;1.498;2023-04-01T00:00:56;21.88;;;3.35;;
78877;SDS011;68257;43.514;1.498;2023-04-01T00:03:23;17.38;;;2.90;;
78877;SDS011;68257;43.514;1.498;2023-04-01T00:05:49;20.10;;;3.22;;
78877;SDS011;68257;43.514;1.498;2023-04-01T00:08:15;24.20;;;3.10;;
78877;SDS011;68257;43.514;1.498;2023-04-01T00:10:41;18.88;;;2.85;;
78877;SDS011;68257;43.514;1.498;2023-04-01T00:13:07;17.83;;;2.90;;
78877;SDS011;68257;43.514;1.498;2023-04-01T00:15:32;22.07;;;3.30;;
78877;SDS011;68257;43.514;1.498;2023-04-01T00:17:58;17.35;;;3.17;;
78877;SDS011;68257;43.514;1.498;2023-04-01T00:20:24;22.63;;;3.20;;
78877;SDS011;68257;43.514;1.498;2023-04-01T00:22:50;16.47;;;3.00;;
78877;SDS011;68257;43.514;1.498;2023-04-01T00:25:15;23.93;;;2.77;;
78877;SDS011;68257;43.514;1.498;2023-04-01T00:27:41;21.77;;;3.70;;
78877;SDS011;68257;43.514;1.498;2023-04-01T00:30:06;21.10;;;2.50;;
78877;SDS011;68257;43.514;1.498;2023-04-01T00:32:33;17.30;;;2.75;;
78877;SDS011;68257;43.514;1.498;2023-04-01T00:34:59;19.30;;;2.70;;
78877;SDS011;68257;43.514;1.498;2023-04-01T00:37:25;21.35;;;2.90;;
78877;SDS011;68257;43.514;1.498;2023-04-01T00:39:51;18.67;;;2.92;;
78877;SDS011;68257;43.514;1.498;2023-04-01T00:42:16;18.85;;;2.72;;
78877;SDS011;68257;43.514;1.498;2023-04-01T00:44:44;17.10;;;3.00;;
78877;SDS011;68257;43.514;1.498;2023-04-01T00:47:12;18.93;;;3.07;;
78877;SDS011;68257;43.514;1.498;2023-04-01T00:49:39;17.52;;;2.80;;
78877;SDS011;68257;43.514;1.498;2023-04-01T00:52:06;21.73;;;2.97;;
78877;SDS011;68257;43.514;1.498;2023-04-01T00:54:33;19.48;;;3.17;;
78877;SDS011;68257;43.514;1.498;2023-04-01T00:57:07;20.77;;;3.00;;
78877;SDS011;68257;43.514;1.498;2023-04-01T00:59:39;18.67;;;3.10;;
78877;SDS011;68257;43.514;1.498;2023-04-01T01:02:07;19.52;;;2.60;;
78877;SDS011;68257;43.514;1.498;2023-04-01T01:04:34;19.90;;;2.73;;
78877;SDS011;68257;43.514;1.498;2023-04-01T01:09:43;23.73;;;3.65;;
78877;SDS011;68257;43.514;1.498;2023-04-01T01:12:18;23.70;;;2.60;;
78877;SDS011;68257;43.514;1.498;2023-04-01T01:15:13;18.40;;;3.00;;
78877;SDS011;68257;43.514;1.498;2023-04-01T01:26:34;23.00;;;3.17;;
78877;SDS011;68257;43.514;1.498;2023-04-01T01:37:01;27.80;;;3.78;;
78877;SDS011;68257;43.514;1.498;2023-04-01T01:39:31;19.55;;;3.00;;
78877;SDS011;68257;43.514;1.498;2023-04-01T01:41:59;21.00;;;3.00;;
78877;SDS011;68257;43.514;1.498;2023-04-01T01:44:27;22.20;;;3.73;;
78877;SDS011;68257;43.514;1.498;2023-04-01T01:46:54;23.60;;;3.05;;
78877;SDS011;68257;43.514;1.498;2023-04-01T01:49:20;22.73;;;3.58;;
78877;SDS011;68257;43.514;1.498;2023-04-01T01:51:46;16.17;;;2.43;;
78877;SDS011;68257;43.514;1.498;2023-04-01T01:54:13;25.55;;;3.30;;
78877;SDS011;68257;43.514;1.498;2023-04-01T01:56:40;21.15;;;3.08;;
78877;SDS011;68257;43.514;1.498;2023-04-01T01:59:07;19.50;;;2.67;;
78877;SDS011;68257;43.514;1.498;2023-04-01T02:01:35;20.70;;;3.37;;
78877;SDS011;68257;43.514;1.498;2023-04-01T02:04:03;24.05;;;2.78;;
78877;SDS011;68257;43.514;1.498;2023-04-01T02:06:30;21.45;;;2.97;;
78877;SDS011;68257;43.514;1.498;2023-04-01T02:11:34;18.65;;;3.05;;
78877;SDS011;68257;43.514;1.498;2023-04-01T02:14:08;22.73;;;3.00;;
78877;SDS011;68257;43.514;1.498;2023-04-01T02:16:40;24.38;;;3.30;;
78877;SDS011;68257;43.514;1.498;2023-04-01T02:19:32;29.00;;;3.28;;
78877;SDS011;68257;43.514;1.498;2023-04-01T02:22:01;17.88;;;2.60;;
78877;SDS011;68257;43.514;1.498;2023-04-01T02:24:30;24.40;;;3.05;;
78877;SDS011;68257;43.514;1.498;2023-04-01T02:26:56;16.40;;;2.80;;
78877;SDS011;68257;43.514;1.498;2023-04-01T02:29:22;19.80;;;2.75;;
78877;SDS011;68257;43.514;1.498;2023-04-01T02:31:50;21.10;;;2.80;;
78877;SDS011;68257;43.514;1.498;2023-04-01T02:34:15;25.80;;;3.50;;
78877;SDS011;68257;43.514;1.498;2023-04-01T02:36:41;16.30;;;2.53;;
78877;SDS011;68257;43.514;1.498;2023-04-01T02:39:07;22.67;;;3.10;;
78877;SDS011;68257;43.514;1.498;2023-04-01T02:41:38;19.35;;;2.90;;
78877;SDS011;68257;43.514;1.498;2023-04-01T02:44:07;22.67;;;2.50;;
78877;SDS011;68257;43.514;1.498;2023-04-01T02:46:33;20.70;;;2.63;;
78877;SDS011;68257;43.514;1.498;2023-04-01T02:48:58;19.40;;;3.03;;
78877;SDS011;68257;43.514;1.498;2023-04-01T02:51:25;19.60;;;2.53;;
78877;SDS011;68257;43.514;1.498;2023-04-01T02:53:50;18.40;;;2.83;;
78877;SDS011;68257;43.514;1.498;2023-04-01T02:56:16;22.27;;;2.60;;
78877;SDS011;68257;43.514;1.498;2023-04-01T02:58:41;23.07;;;2.90;;
78877;SDS011;68257;43.514;1.498;2023-04-01T03:01:06;20.17;;;2.90;;
78877;SDS011;68257;43.514;1.498;2023-04-01T03:03:33;21.23;;;3.17;;
78877;SDS011;68257;43.514;1.498;2023-04-01T03:06:01;22.60;;;3.23;;
78877;SDS011;68257;43.514;1.498;2023-04-01T03:08:30;22.50;;;3.08;;
78877;SDS011;68257;43.514;1.498;2023-04-01T03:10:55;23.17;;;3.17;;
78877;SDS011;68257;43.514;1.498;2023-04-01T03:13:21;28.75;;;3.42;;
78877;SDS011;68257;43.514;1.498;2023-04-01T03:15:47;22.67;;;2.97;;
78877;SDS011;68257;43.514;1.498;2023-04-01T03:18:12;23.03;;;2.97;;
78877;SDS011;68257;43.514;1.498;2023-04-01T03:20:38;19.98;;;2.65;;
78877;SDS011;68257;43.514;1.498;2023-04-01T03:23:03;22.17;;;3.10;;
78877;SDS011;68257;43.514;1.498;2023-04-01T03:25:28;19.00;;;2.67;;
78877;SDS011;68257;43.514;1.498;2023-04-01T03:27:55;21.38;;;2.83;;
78877;SDS011;68257;43.514;1.498;2023-04-01T03:30:21;25.93;;;3.17;;
78877;SDS011;68257;43.514;1.498;2023-04-01T03:32:46;22.13;;;2.77;;
78877;SDS011;68257;43.514;1.498;2023-04-01T03:35:12;22.90;;;2.90;;
78877;SDS011;68257;43.514;1.498;2023-04-01T03:37:37;19.73;;;3.00;;
78877;SDS011;68257;43.514;1.498;2023-04-01T03:40:03;25.53;;;4.33;;
78877;SDS011;68257;43.514;1.498;2023-04-01T03:42:29;22.50;;;3.25;;
78877;SDS011;68257;43.514;1.498;2023-04-01T03:44:56;20.83;;;3.20;;
78877;SDS011;68257;43.514;1.498;2023-04-01T03:47:21;24.05;;;2.72;;
78877;SDS011;68257;43.514;1.498;2023-04-01T03:49:46;20.10;;;2.60;;
78877;SDS011;68257;43.514;1.498;2023-04-01T03:52:12;24.23;;;3.43;;
78877;SDS011;68257;43.514;1.498;2023-04-01T03:54:38;19.57;;;2.53;;
78877;SDS011;68257;43.514;1.498;2023-04-01T03:57:03;23.73;;;2.83;;
78877;SDS011;68257;43.514;1.498;2023-04-01T03:59:29;25.73;;;3.30;;
78877;SDS011;68257;43.514;1.498;2023-04-01T04:01:54;20.03;;;2.83;;
78877;SDS011;68257;43.514;1.498;2023-04-01T04:04:19;28.37;;;3.40;;
78877;SDS011;68257;43.514;1.498;2023-04-01T04:06:45;22.75;;;3.90;;
78877;SDS011;68257;43.514;1.498;2023-04-01T04:09:10;22.57;;;3.40;;
78877;SDS011;68257;43.514;1.498;2023-04-01T04:11:36;19.17;;;2.80;;
78877;SDS011;68257;43.514;1.498;2023-04-01T04:14:01;20.53;;;2.83;;
78877;SDS011;68257;43.514;1.498;2023-04-01T04:16:27;21.65;;;3.17;;
78877;SDS011;68257;43.514;1.498;2023-04-01T04:18:52;25.07;;;3.27;;
78877;SDS011;68257;43.514;1.498;2023-04-01T04:21:18;23.53;;;2.90;;
78877;SDS011;68257;43.514;1.498;2023-04-01T04:23:43;21.57;;;3.13;;
78877;SDS011;68257;43.514;1.498;2023-04-01T04:26:10;19.35;;;2.90;;
78877;SDS011;68257;43.514;1.498;2023-04-01T04:28:36;19.83;;;2.97;;
78877;SDS011;68257;43.514;1.498;2023-04-01T04:31:02;17.90;;;2.90;;
78877;SDS011;68257;43.514;1.498;2023-04-01T04:33:29;25.45;;;2.97;;
78877;SDS011;68257;43.514;1.498;2023-04-01T04:35:55;21.57;;;3.30;;
78877;SDS011;68257;43.514;1.498;2023-04-01T04:38:21;21.55;;;2.70;;
78877;SDS011;68257;43.514;1.498;2023-04-01T04:40:47;21.40;;;2.90;;
78877;SDS011;68257;43.514;1.498;2023-04-01T04:43:13;20.80;;;3.30;;
78877;SDS011;68257;43.514;1.498;2023-04-01T04:45:40;24.83;;;3.17;;
78877;SDS011;68257;43.514;1.498;2023-04-01T04:48:07;20.02;;;2.53;;
78877;SDS011;68257;43.514;1.498;2023-04-01T04:50:34;20.10;;;3.08;;
78877;SDS011;68257;43.514;1.498;2023-04-01T04:52:59;22.20;;;3.05;;
78877;SDS011;68257;43.514;1.498;2023-04-01T04:55:25;22.33;;;3.07;;
78877;SDS011;68257;43.514;1.498;2023-04-01T04:57:50;22.50;;;3.57;;
78877;SDS011;68257;43.514;1.498;2023-04-01T05:00:16;20.55;;;3.08;;
78877;SDS011;68257;43.514;1.498;2023-04-01T05:02:41;18.95;;;2.70;;
78877;SDS011;68257;43.514;1.498;2023-04-01T05:05:07;18.50;;;3.00;;
78877;SDS011;68257;43.514;1.498;2023-04-01T05:07:33;16.65;;;2.22;;
78877;SDS011;68257;43.514;1.498;2023-04-01T05:09:58;22.97;;;2.97;;
78877;SDS011;68257;43.514;1.498;2023-04-01T05:12:24;16.67;;;2.47;;
78877;SDS011;68257;43.514;1.498;2023-04-01T05:14:49;20.33;;;3.13;;
78877;SDS011;68257;43.514;1.498;2023-04-01T05:17:15;18.03;;;2.50;;
78877;SDS011;68257;43.514;1.498;2023-04-01T05:19:40;20.27;;;2.67;;
78877;SDS011;68257;43.514;1.498;2023-04-01T05:22:06;21.70;;;3.40;;
78877;SDS011;68257;43.514;1.498;2023-04-01T05:24:31;18.83;;;2.78;;
78877;SDS011;68257;43.514;1.498;2023-04-01T05:26:57;19.03;;;3.10;;
78877;SDS011;68257;43.514;1.498;2023-04-01T05:29:23;19.63;;;2.63;;
78877;SDS011;68257;43.514;1.498;2023-04-01T05:31:49;19.40;;;3.13;;
78877;SDS011;68257;43.514;1.498;2023-04-01T05:34:15;52.43;;;47.63;;
78877;SDS011;68257;43.514;1.498;2023-04-01T05:36:41;19.70;;;2.43;;
78877;SDS011;68257;43.514;1.498;2023-04-01T05:39:07;17.48;;;2.38;;
78877;SDS011;68257;43.514;1.498;2023-04-01T05:41:34;16.98;;;2.92;;
78877;SDS011;68257;43.514;1.498;2023-04-01T05:44:00;24.77;;;2.80;;
78877;SDS011;68257;43.514;1.498;2023-04-01T05:46:26;18.85;;;2.65;;
78877;SDS011;68257;43.514;1.498;2023-04-01T05:48:51;17.23;;;2.93;;
78877;SDS011;68257;43.514;1.498;2023-04-01T05:51:16;19.23;;;2.93;;
78877;SDS011;68257;43.514;1.498;2023-04-01T05:53:42;18.93;;;2.97;;
78877;SDS011;68257;43.514;1.498;2023-04-01T05:56:08;20.35;;;2.47;;
78877;SDS011;68257;43.514;1.498;2023-04-01T05:58:34;20.80;;;2.90;;
78877;SDS011;68257;43.514;1.498;2023-04-01T06:01:04;17.63;;;2.40;;
78877;SDS011;68257;43.514;1.498;2023-04-01T06:03:34;17.55;;;2.70;;
78877;SDS011;68257;43.514;1.498;2023-04-01T06:05:59;14.70;;;2.83;;
78877;SDS011;68257;43.514;1.498;2023-04-01T06:08:26;21.63;;;2.80;;
78877;SDS011;68257;43.514;1.498;2023-04-01T06:19:05;15.85;;;2.72;;
78877;SDS011;68257;43.514;1.498;2023-04-01T06:22:08;28.53;;;2.80;;
78877;SDS011;68257;43.514;1.498;2023-04-01T06:38:27;19.23;;;2.78;;
78877;SDS011;68257;43.514;1.498;2023-04-01T06:43:49;19.98;;;2.83;;
78877;SDS011;68257;43.514;1.498;2023-04-01T06:51:50;20.10;;;2.78;;
78877;SDS011;68257;43.514;1.498;2023-04-01T06:54:49;20.15;;;2.78;;
78877;SDS011;68257;43.514;1.498;2023-04-01T06:57:37;17.27;;;2.70;;
78877;SDS011;68257;43.514;1.498;2023-04-01T07:00:19;20.13;;;2.53;;
78877;SDS011;68257;43.514;1.498;2023-04-01T07:02:49;15.30;;;2.77;;
78877;SDS011;68257;43.514;1.498;2023-04-01T07:05:20;19.55;;;2.85;;
78877;SDS011;68257;43.514;1.498;2023-04-01T07:07:47;16.43;;;3.23;;
78877;SDS011;68257;43.514;1.498;2023-04-01T07:10:17;17.42;;;2.10;;
78877;SDS011;68257;43.514;1.498;2023-04-01T07:15:17;17.27;;;2.35;;
78877;SDS011;68257;43.514;1.498;2023-04-01T07:17:45;20.55;;;2.83;;
78877;SDS011;68257;43.514;1.498;2023-04-01T07:20:25;21.67;;;2.65;;
78877;SDS011;68257;43.514;1.498;2023-04-01T07:23:00;20.40;;;2.47;;
78877;SDS011;68257;43.514;1.498;2023-04-01T07:25:34;16.75;;;2.88;;
78877;SDS011;68257;43.514;1.498;2023-04-01T07:28:03;17.83;;;3.20;;
78877;SDS011;68257;43.514;1.498;2023-04-01T07:30:51;19.75;;;2.90;;
78877;SDS011;68257;43.514;1.498;2023-04-01T07:36:24;20.40;;;2.85;;
78877;SDS011;68257;43.514;1.498;2023-04-01T07:52:08;20.20;;;3.13;;
78877;SDS011;68257;43.514;1.498;2023-04-01T07:54:56;16.67;;;2.55;;
78877;SDS011;68257;43.514;1.498;2023-04-01T08:03:29;15.73;;;2.40;;
78877;SDS011;68257;43.514;1.498;2023-04-01T08:06:00;17.77;;;3.15;;
78877;SDS011;68257;43.514;1.498;2023-04-01T08:08:39;16.70;;;3.00;;
78877;SDS011;68257;43.514;1.498;2023-04-01T08:11:32;17.40;;;3.53;;
78877;SDS011;68257;43.514;1.498;2023-04-01T08:16:44;21.17;;;2.95;;
78877;SDS011;68257;43.514;1.498;2023-04-01T08:21:52;17.27;;;3.30;;
78877;SDS011;68257;43.514;1.498;2023-04-01T08:27:09;17.48;;;3.00;;
78877;SDS011;68257;43.514;1.498;2023-04-01T08:29:40;17.98;;;2.70;;
78877;SDS011;68257;43.514;1.498;2023-04-01T08:32:11;16.38;;;2.70;;
78877;SDS011;68257;43.514;1.498;2023-04-01T08:34:39;17.35;;;2.55;;
78877;SDS011;68257;43.514;1.498;2023-04-01T08:37:11;16.73;;;3.25;;
78877;SDS011;68257;43.514;1.498;2023-04-01T08:39:44;13.45;;;2.08;;
78877;SDS011;68257;43.514;1.498;2023-04-01T08:42:15;15.15;;;2.45;;
78877;SDS011;68257;43.514;1.498;2023-04-01T08:55:30;18.48;;;2.90;;
78877;SDS011;68257;43.514;1.498;2023-04-01T09:03:35;14.25;;;2.90;;
78877;SDS011;68257;43.514;1.498;2023-04-01T09:14:53;12.00;;;2.23;;
78877;SDS011;68257;43.514;1.498;2023-04-01T09:34:57;7.93;;;1.83;;
78877;SDS011;68257;43.514;1.498;2023-04-01T09:37:53;8.05;;;1.77;;
78877;SDS011;68257;43.514;1.498;2023-04-01T09:40:37;7.90;;;1.80;;
78877;SDS011;68257;43.514;1.498;2023-04-01T09:57:13;6.20;;;1.80;;
78877;SDS011;68257;43.514;1.498;2023-04-01T10:02:43;8.85;;;2.00;;
78877;SDS011;68257;43.514;1.498;2023-04-01T10:50:04;8.93;;;3.83;;
78877;SDS011;68257;43.514;1.498;2023-04-01T10:58:08;7.68;;;2.60;;
78877;SDS011;68257;43.514;1.498;2023-04-01T11:04:02;7.18;;;2.10;;
78877;SDS011;68257;43.514;1.498;2023-04-01T11:06:59;6.70;;;2.23;;
78877;SDS011;68257;43.514;1.498;2023-04-01T11:29:09;7.10;;;1.50;;
78877;SDS011;68257;43.514;1.498;2023-04-01T11:43:14;6.00;;;1.60;;
78877;SDS011;68257;43.514;1.498;2023-04-01T11:59:39;4.45;;;1.25;;
78877;SDS011;68257;43.514;1.498;2023-04-01T12:10:18;8.05;;;4.03;;
78877;SDS011;68257;43.514;1.498;2023-04-01T12:15:29;5.40;;;1.42;;
78877;SDS011;68257;43.514;1.498;2023-04-01T12:29:06;6.72;;;1.05;;
78877;SDS011;68257;43.514;1.498;2023-04-01T12:32:20;5.78;;;1.75;;
78877;SDS011;68257;43.514;1.498;2023-04-01T12:45:28;5.60;;;1.17;;
78877;SDS011;68257;43.514;1.498;2023-04-01T12:48:14;5.65;;;1.20;;
78877;SDS011;68257;43.514;1.498;2023-04-01T13:12:55;8.00;;;1.37;;
78877;SDS011;68257;43.514;1.498;2023-04-01T13:15:37;5.90;;;1.02;;
78877;SDS011;68257;43.514;1.498;2023-04-01T13:23:36;7.95;;;1.48;;
78877;SDS011;68257;43.514;1.498;2023-04-01T13:26:22;7.27;;;1.80;;
78877;SDS011;68257;43.514;1.498;2023-04-01T13:28:53;6.35;;;1.40;;
78877;SDS011;68257;43.514;1.498;2023-04-01T13:39:42;7.00;;;1.10;;
78877;SDS011;68257;43.514;1.498;2023-04-01T13:45:14;5.95;;;1.00;;
78877;SDS011;68257;43.514;1.498;2023-04-01T13:47:57;5.90;;;1.48;;
78877;SDS011;68257;43.514;1.498;2023-04-01T13:56:50;4.40;;;1.00;;
78877;SDS011;68257;43.514;1.498;2023-04-01T14:02:21;4.00;;;0.88;;
78877;SDS011;68257;43.514;1.498;2023-04-01T14:10:31;3.85;;;0.88;;
78877;SDS011;68257;43.514;1.498;2023-04-01T14:13:18;4.30;;;0.77;;
78877;SDS011;68257;43.514;1.498;2023-04-01T14:18:53;9.57;;;1.27;;
78877;SDS011;68257;43.514;1.498;2023-04-01T14:43:27;7.53;;;1.25;;
78877;SDS011;68257;43.514;1.498;2023-04-01T14:46:17;8.75;;;2.30;;
78877;SDS011;68257;43.514;1.498;2023-04-01T14:48:53;33.60;;;10.50;;
78877;SDS011;68257;43.514;1.498;2023-04-01T14:59:46;11.30;;;3.05;;
78877;SDS011;68257;43.514;1.498;2023-04-01T15:10:12;14.60;;;5.82;;
78877;SDS011;68257;43.514;1.498;2023-04-01T15:15:48;7.20;;;2.30;;
78877;SDS011;68257;43.514;1.498;2023-04-01T15:18:29;6.45;;;1.67;;
78877;SDS011;68257;43.514;1.498;2023-04-01T15:21:02;8.55;;;2.90;;
78877;SDS011;68257;43.514;1.498;2023-04-01T15:26:37;7.75;;;1.98;;
78877;SDS011;68257;43.514;1.498;2023-04-01T15:43:18;4.23;;;1.00;;
78877;SDS011;68257;43.514;1.498;2023-04-01T16:02:35;4.85;;;1.20;;
78877;SDS011;68257;43.514;1.498;2023-04-01T16:16:23;4.28;;;1.00;;
78877;SDS011;68257;43.514;1.498;2023-04-01T16:19:03;5.95;;;1.10;;
78877;SDS011;68257;43.514;1.498;2023-04-01T16:27:04;6.15;;;1.20;;
78877;SDS011;68257;43.514;1.498;2023-04-01T16:29:38;6.35;;;1.13;;
78877;SDS011;68257;43.514;1.498;2023-04-01T16:35:13;6.97;;;1.02;;
78877;SDS011;68257;43.514;1.498;2023-04-01T16:48:58;5.95;;;1.00;;
78877;SDS011;68257;43.514;1.498;2023-04-01T16:51:24;3.80;;;0.80;;
78877;SDS011;68257;43.514;1.498;2023-04-01T16:56:50;3.45;;;0.52;;
78877;SDS011;68257;43.514;1.498;2023-04-01T17:02:14;5.00;;;1.10;;
78877;SDS011;68257;43.514;1.498;2023-04-01T17:04:49;5.28;;;1.58;;
78877;SDS011;68257;43.514;1.498;2023-04-01T17:24:36;3.58;;;0.93;;
78877;SDS011;68257;43.514;1.498;2023-04-01T17:30:18;7.72;;;1.20;;
78877;SDS011;68257;43.514;1.498;2023-04-01T17:35:59;4.75;;;0.82;;
78877;SDS011;68257;43.514;1.498;2023-04-01T17:52:32;4.78;;;0.77;;
78877;SDS011;68257;43.514;1.498;2023-04-01T18:00:26;4.25;;;0.63;;
78877;SDS011;68257;43.514;1.498;2023-04-01T18:03:20;3.83;;;0.60;;
78877;SDS011;68257;43.514;1.498;2023-04-01T18:22:43;7.00;;;1.30;;
78877;SDS011;68257;43.514;1.498;2023-04-01T18:27:56;6.28;;;1.15;;
78877;SDS011;68257;43.514;1.498;2023-04-01T18:30:25;7.27;;;1.00;;
78877;SDS011;68257;43.514;1.498;2023-04-01T18:32:58;11.15;;;1.40;;
78877;SDS011;68257;43.514;1.498;2023-04-01T18:35:32;3.80;;;0.90;;
78877;SDS011;68257;43.514;1.498;2023-04-01T18:38:18;5.75;;;0.93;;
78877;SDS011;68257;43.514;1.498;2023-04-01T18:40:53;4.38;;;1.27;;
78877;SDS011;68257;43.514;1.498;2023-04-01T18:43:32;8.03;;;1.23;;
78877;SDS011;68257;43.514;1.498;2023-04-01T18:51:45;5.57;;;1.20;;
78877;SDS011;68257;43.514;1.498;2023-04-01T18:54:29;4.38;;;1.00;;
78877;SDS011;68257;43.514;1.498;2023-04-01T18:59:50;6.15;;;1.00;;
78877;SDS011;68257;43.514;1.498;2023-04-01T19:02:31;5.03;;;0.85;;
78877;SDS011;68257;43.514;1.498;2023-04-01T19:07:52;5.55;;;1.13;;
78877;SDS011;68257;43.514;1.498;2023-04-01T19:13:39;3.25;;;0.90;;
78877;SDS011;68257;43.514;1.498;2023-04-01T19:21:37;6.57;;;1.13;;
78877;SDS011;68257;43.514;1.498;2023-04-01T19:26:56;6.90;;;1.05;;
78877;SDS011;68257;43.514;1.498;2023-04-01T19:35:19;4.32;;;0.80;;
78877;SDS011;68257;43.514;1.498;2023-04-01T19:45:40;5.73;;;0.90;;
78877;SDS011;68257;43.514;1.498;2023-04-01T19:57:05;5.63;;;0.90;;
78877;SDS011;68257;43.514;1.498;2023-04-01T19:59:48;4.35;;;0.68;;
78877;SDS011;68257;43.514;1.498;2023-04-01T20:08:49;4.47;;;0.90;;
78877;SDS011;68257;43.514;1.498;2023-04-01T20:11:28;6.33;;;0.90;;
78877;SDS011;68257;43.514;1.498;2023-04-01T20:19:37;6.85;;;1.20;;
78877;SDS011;68257;43.514;1.498;2023-04-01T20:22:08;4.22;;;0.70;;
78877;SDS011;68257;43.514;1.498;2023-04-01T20:25:39;7.57;;;0.97;;
78877;SDS011;68257;43.514;1.498;2023-04-01T20:28:05;3.08;;;0.85;;
78877;SDS011;68257;43.514;1.498;2023-04-01T20:49:33;7.47;;;0.93;;
78877;SDS011;68257;43.514;1.498;2023-04-01T20:54:56;8.65;;;1.23;;
78877;SDS011;68257;43.514;1.498;2023-04-01T21:11:09;6.10;;;1.20;;
78877;SDS011;68257;43.514;1.498;2023-04-01T21:13:53;5.45;;;0.90;;
78877;SDS011;68257;43.514;1.498;2023-04-01T21:16:43;6.75;;;1.20;;
78877;SDS011;68257;43.514;1.498;2023-04-01T21:22:11;10.00;;;1.30;;
78877;SDS011;68257;43.514;1.498;2023-04-01T21:27:42;8.98;;;1.25;;
78877;SDS011;68257;43.514;1.498;2023-04-01T21:35:50;10.88;;;1.58;;
78877;SDS011;68257;43.514;1.498;2023-04-01T22:00:36;4.30;;;1.23;;
78877;SDS011;68257;43.514;1.498;2023-04-01T22:08:05;11.20;;;1.30;;
78877;SDS011;68257;43.514;1.498;2023-04-01T22:10:41;11.10;;;1.35;;
78877;SDS011;68257;43.514;1.498;2023-04-01T22:20:59;7.80;;;1.90;;
78877;SDS011;68257;43.514;1.498;2023-04-01T22:23:53;8.60;;;1.55;;
78877;SDS011;68257;43.514;1.498;2023-04-01T22:26:27;8.48;;;1.33;;
78877;SDS011;68257;43.514;1.498;2023-04-01T22:31:44;9.40;;;0.95;;
78877;SDS011;68257;43.514;1.498;2023-04-01T22:42:46;7.00;;;1.30;;
78877;SDS011;68257;43.514;1.498;2023-04-01T22:50:36;11.07;;;1.10;;
78877;SDS011;68257;43.514;1.498;2023-04-01T22:55:46;7.70;;;1.00;;
78877;SDS011;68257;43.514;1.498;2023-04-01T22:58:14;6.93;;;1.08;;
78877;SDS011;68257;43.514;1.498;2023-04-01T23:00:48;6.93;;;0.90;;
78877;SDS011;68257;43.514;1.498;2023-04-01T23:03:22;10.82;;;1.20;;
78877;SDS011;68257;43.514;1.498;2023-04-01T23:05:53;12.18;;;1.10;;
78877;SDS011;68257;43.514;1.498;2023-04-01T23:11:06;7.50;;;1.30;;
78877;SDS011;68257;43.514;1.498;2023-04-01T23:13:36;8.93;;;1.20;;
78877;SDS011;68257;43.514;1.498;2023-04-01T23:16:05;8.82;;;1.42;;
78877;SDS011;68257;43.514;1.498;2023-04-01T23:23:45;7.72;;;1.42;;
78877;SDS011;68257;43.514;1.498;2023-04-01T23:26:21;9.48;;;1.35;;
78877;SDS011;68257;43.514;1.498;2023-04-01T23:28:51;9.20;;;1.05;;
78877;SDS011;68257;43.514;1.498;2023-04-01T23:31:28;8.35;;;1.25;;
78877;SDS011;68257;43.514;1.498;2023-04-01T23:33:56;7.17;;;1.00;;
78877;SDS011;68257;43.514;1.498;2023-04-01T23:36:37;4.93;;;0.95;;
78877;SDS011;68257;43.514;1.498;2023-04-01T23:39:25;9.75;;;1.20;;
78877;SDS011;68257;43.514;1.498;2023-04-01T23:41:56;7.55;;;0.73;;
78877;SDS011;68257;43.514;1.498;2023-04-01T23:44:25;9.30;;;1.00;;
78877;SDS011;68257;43.514;1.498;2023-04-01T23:46:51;11.20;;;1.20;;
78877;SDS011;68257;43.514;1.498;2023-04-01T23:52:14;7.32;;;1.67;;
78877;SDS011;68257;43.514;1.498;2023-04-01T23:54:51;9.02;;;0.90;;
78877;SDS011;68257;43.514;1.498;2023-04-01T23:57:33;7.68;;;1.20;;
